createdAt,value
2018-10-21T05:45:27.754Z,99.90
2018-10-21T05:48:00.156Z,99.90
2018-10-21T05:50:32.570Z,99.90
2018-10-21T05:53:04.968Z,99.90
2018-10-21T05:55:37.410Z,99.90
2018-10-21T05:58:09.805Z,99.90
2018-10-21T06:00:42.210Z,99.90
2018-10-21T06:03:14.605Z,99.90
2018-10-21T06:05:47.006Z,99.90
2018-10-21T06:08:19.410Z,99.90
2018-10-21T06:10:51.814Z,99.90
2018-10-21T06:13:24.214Z,99.90
2018-10-21T06:15:56.656Z,99.90
2018-10-21T06:18:29.029Z,99.90
2018-10-21T06:21:01.435Z,99.90
2018-10-21T06:23:33.847Z,99.90
2018-10-21T06:26:06.354Z,99.90
2018-10-21T06:28:38.769Z,99.90
2018-10-21T06:31:11.176Z,99.90
2018-10-21T06:33:43.645Z,99.90
2018-10-21T06:36:15.991Z,99.90
2018-10-21T06:38:48.389Z,99.90
2018-10-21T06:41:20.827Z,99.90
2018-10-21T06:43:53.219Z,99.90
2018-10-21T06:46:25.614Z,99.90
2018-10-21T06:48:58.023Z,99.90
2018-10-21T06:51:30.434Z,99.90
2018-10-21T06:54:02.862Z,99.90
2018-10-21T06:56:35.313Z,99.90
2018-10-21T06:59:07.678Z,99.90
2018-10-21T07:01:40.080Z,99.90
2018-10-21T07:04:12.590Z,99.90
2018-10-21T07:06:44.886Z,99.90
2018-10-21T07:09:17.300Z,99.90
2018-10-21T07:11:49.698Z,99.90
2018-10-21T07:14:22.114Z,99.90
2018-10-21T07:16:54.539Z,99.90
2018-10-21T07:19:26.971Z,99.90
2018-10-21T07:21:59.440Z,99.90
2018-10-21T07:24:31.811Z,99.90
2018-10-21T07:27:04.699Z,99.90
2018-10-21T07:29:37.106Z,99.90
2018-10-21T07:32:09.493Z,99.90
2018-10-21T07:34:41.902Z,99.90
2018-10-21T07:37:14.332Z,99.90
2018-10-21T07:39:46.751Z,99.90
2018-10-21T07:42:19.147Z,99.90
2018-10-21T07:44:51.575Z,99.90
2018-10-21T07:47:23.977Z,99.90
2018-10-21T07:49:56.390Z,99.90
2018-10-21T07:52:28.787Z,99.90
2018-10-21T07:55:01.210Z,99.90
2018-10-21T07:57:33.598Z,99.90
2018-10-21T08:00:06.010Z,99.90
2018-10-21T08:02:38.402Z,99.90
2018-10-21T08:05:22.187Z,99.90
2018-10-21T08:15:07.143Z,99.90
2018-10-21T08:17:39.535Z,99.90
2018-10-21T08:20:11.946Z,99.90
2018-10-21T08:22:44.365Z,99.90
2018-10-21T08:25:16.789Z,99.90
2018-10-21T08:27:49.433Z,99.90
2018-10-21T08:30:21.870Z,99.90
2018-10-21T08:32:54.257Z,99.90
2018-10-21T08:35:26.679Z,99.90
2018-10-21T08:37:59.078Z,99.90
2018-10-21T08:40:31.490Z,99.90
2018-10-21T08:43:04.262Z,99.90
2018-10-21T08:45:36.682Z,99.90
2018-10-21T08:48:09.088Z,99.90
2018-10-21T08:50:41.510Z,99.90
2018-10-21T08:53:13.914Z,99.90
2018-10-21T08:55:46.400Z,99.90
2018-10-21T08:58:18.861Z,99.90
2018-10-21T09:00:51.262Z,99.90
2018-10-21T09:03:23.675Z,99.90
2018-10-21T09:05:56.080Z,99.90
2018-10-21T09:08:28.473Z,99.90
2018-10-21T09:11:00.933Z,99.90
2018-10-21T09:13:33.288Z,99.90
2018-10-21T09:16:05.723Z,99.90
2018-10-21T09:18:38.110Z,99.90
2018-10-21T09:21:10.510Z,99.90
2018-10-21T09:23:42.911Z,99.90
2018-10-21T09:26:15.350Z,99.90
2018-10-21T09:28:47.750Z,99.90
2018-10-21T09:31:20.163Z,99.90
2018-10-21T09:33:52.546Z,99.90
2018-10-21T09:36:24.958Z,99.90
2018-10-21T09:38:57.354Z,99.90
2018-10-21T09:41:29.767Z,99.90
2018-10-21T09:44:02.182Z,99.90
2018-10-21T09:46:34.684Z,99.90
2018-10-21T09:49:07.151Z,99.90
2018-10-21T09:51:39.638Z,99.90
2018-10-21T09:54:12.035Z,99.90
2018-10-21T09:56:44.463Z,99.90
2018-10-21T09:59:16.850Z,99.90
2018-10-21T10:01:49.275Z,99.90
2018-10-21T10:04:21.756Z,99.90
2018-10-21T10:06:54.143Z,99.90
2018-10-21T10:09:26.522Z,99.90
2018-10-21T10:11:59.014Z,99.90
2018-10-21T10:14:31.406Z,99.90
2018-10-21T10:17:04.076Z,99.90
2018-10-21T10:19:36.467Z,99.90
2018-10-21T10:22:08.892Z,99.90
2018-10-21T10:24:41.315Z,99.90
2018-10-21T10:27:13.716Z,99.90
2018-10-21T10:29:46.131Z,99.90
2018-10-21T10:32:18.530Z,99.90
2018-10-21T10:34:50.921Z,99.90
2018-10-21T10:37:23.344Z,99.90
2018-10-21T10:39:55.818Z,99.90
2018-10-21T10:42:28.199Z,99.90
2018-10-21T10:45:00.596Z,99.90
2018-10-21T10:47:33.010Z,99.90
2018-10-21T10:50:06.845Z,99.90
2018-10-21T10:52:39.247Z,99.90
2018-10-21T10:55:11.979Z,99.90
2018-10-21T10:57:44.356Z,99.90
2018-10-21T11:00:16.841Z,99.90
2018-10-21T11:02:49.455Z,99.90
2018-10-21T11:05:21.848Z,99.90
2018-10-21T11:07:54.324Z,99.90
2018-10-21T11:10:26.706Z,99.90
2018-10-21T11:12:59.125Z,99.90
2018-10-21T11:15:32.509Z,99.90
2018-10-21T11:18:04.918Z,99.90
2018-10-21T11:20:37.330Z,99.90
2018-10-21T11:23:09.736Z,99.90
2018-10-21T11:25:42.130Z,99.80
2018-10-21T11:28:14.625Z,99.80
2018-10-21T11:30:46.970Z,99.80
2018-10-21T11:33:19.376Z,99.10
2018-10-21T11:35:51.780Z,99.20
2018-10-21T11:38:24.194Z,98.90
2018-10-21T11:40:56.583Z,98.50
2018-10-21T11:43:28.997Z,98.60
2018-10-21T11:46:01.467Z,98.10
2018-10-21T11:48:33.822Z,98.40
2018-10-21T11:51:06.228Z,98.30
2018-10-21T11:53:38.629Z,97.30
2018-10-21T11:56:11.035Z,97.00
2018-10-21T11:58:43.430Z,96.30
2018-10-21T12:01:15.909Z,96.60
2018-10-21T12:03:48.258Z,96.30
2018-10-21T12:06:20.653Z,96.10
2018-10-21T12:08:53.334Z,95.80
2018-10-21T12:11:25.718Z,96.10
2018-10-21T12:13:58.106Z,96.20
2018-10-21T12:16:30.494Z,96.00
2018-10-21T12:19:02.919Z,95.50
2018-10-21T12:21:35.318Z,94.70
2018-10-21T12:24:07.742Z,94.80
2018-10-21T12:26:40.146Z,94.70
2018-10-21T12:29:12.593Z,94.40
2018-10-21T12:31:45.223Z,94.20
2018-10-21T12:34:17.702Z,93.80
2018-10-21T12:36:50.018Z,93.20
2018-10-21T12:39:22.427Z,93.30
2018-10-21T12:41:54.810Z,92.90
2018-10-21T12:44:27.232Z,92.60
2018-10-21T12:46:59.647Z,92.50
2018-10-21T12:49:32.055Z,92.60
2018-10-21T12:52:04.769Z,92.90
2018-10-21T12:54:37.256Z,92.70
2018-10-21T12:57:09.582Z,92.90
2018-10-21T12:59:41.981Z,92.80
2018-10-21T13:02:14.381Z,92.20
2018-10-21T13:04:46.802Z,92.30
2018-10-21T13:07:19.327Z,91.00
2018-10-21T13:09:51.605Z,91.30
2018-10-21T13:12:23.997Z,91.10
2018-10-21T13:14:56.411Z,91.00
2018-10-21T13:17:28.801Z,92.00
2018-10-21T13:20:01.258Z,91.70
2018-10-21T13:22:33.645Z,91.40
2018-10-21T13:25:06.071Z,91.40
2018-10-21T13:27:38.471Z,91.90
2018-10-21T13:30:10.877Z,90.50
2018-10-21T13:32:43.310Z,91.90
2018-10-21T13:35:15.707Z,90.20
2018-10-21T13:37:48.110Z,90.30
2018-10-21T13:40:20.610Z,90.30
2018-10-21T13:42:52.921Z,91.10
2018-10-21T13:45:25.329Z,91.90
2018-10-21T13:47:57.750Z,91.10
2018-10-21T13:50:30.154Z,90.30
2018-10-21T13:53:02.648Z,90.70
2018-10-21T13:55:35.011Z,90.90
2018-10-21T13:58:07.500Z,90.60
2018-10-21T14:00:39.910Z,90.60
2018-10-21T14:03:12.261Z,90.40
2018-10-21T14:05:44.661Z,90.00
2018-10-21T14:08:17.082Z,90.70
2018-10-21T14:10:49.496Z,90.40
2018-10-21T14:13:21.983Z,91.00
2018-10-21T14:15:54.436Z,91.10
2018-10-21T14:18:26.829Z,91.30
2018-10-21T14:20:59.231Z,91.10
2018-10-21T14:23:31.638Z,91.30
2018-10-21T14:26:04.570Z,91.40
2018-10-21T14:28:37.021Z,91.50
2018-10-21T14:31:09.410Z,91.30
2018-10-21T14:33:41.854Z,91.60
2018-10-21T14:36:14.332Z,91.70
2018-10-21T14:38:46.694Z,91.90
2018-10-21T14:41:19.090Z,91.80
2018-10-21T14:43:51.497Z,91.60
2018-10-21T14:46:23.904Z,91.20
2018-10-21T14:48:56.303Z,91.30
2018-10-21T14:51:28.695Z,91.40
2018-10-21T14:54:01.211Z,91.50
2018-10-21T14:56:33.607Z,91.30
2018-10-21T14:59:06.015Z,91.20
2018-10-21T15:01:38.405Z,91.40
2018-10-21T15:04:10.910Z,91.70
2018-10-21T15:06:43.210Z,91.40
2018-10-21T15:09:15.661Z,91.70
2018-10-21T15:11:48.033Z,91.80
2018-10-21T15:14:20.435Z,91.60
2018-10-21T15:16:52.850Z,91.50
2018-10-21T15:19:25.264Z,91.70
2018-10-21T15:22:04.859Z,91.80
2018-10-21T15:24:37.254Z,91.60
2018-10-21T15:27:09.671Z,91.60
2018-10-21T15:29:42.087Z,91.50
2018-10-21T15:32:14.515Z,91.30
2018-10-21T15:34:46.966Z,91.40
2018-10-21T15:37:19.314Z,91.40
2018-10-21T15:39:51.841Z,91.60
2018-10-21T15:42:24.194Z,91.60
2018-10-21T15:44:56.582Z,92.00
2018-10-21T15:47:29.035Z,91.90
2018-10-21T15:50:01.461Z,91.90
2018-10-21T15:52:33.838Z,91.90
2018-10-21T15:55:06.847Z,92.20
2018-10-21T15:57:39.234Z,92.20
2018-10-21T16:00:11.655Z,91.90
2018-10-21T16:02:44.115Z,92.10
2018-10-21T16:05:16.465Z,92.30
2018-10-21T16:07:48.866Z,92.20
2018-10-21T16:10:21.557Z,92.30
2018-10-21T16:12:53.966Z,92.20
2018-10-21T16:15:26.399Z,92.10
2018-10-21T16:17:58.802Z,92.40
2018-10-21T16:20:31.227Z,92.50
2018-10-21T16:23:03.723Z,92.50
2018-10-21T16:25:36.294Z,92.60
2018-10-21T16:28:08.581Z,92.80
2018-10-21T16:30:41.002Z,92.90
2018-10-21T16:33:13.402Z,93.10
2018-10-21T16:35:46.107Z,93.10
2018-10-21T16:38:18.531Z,93.40
2018-10-21T16:40:51.024Z,93.70
2018-10-21T16:43:23.419Z,93.70
2018-10-21T16:45:55.832Z,93.70
2018-10-21T16:48:28.218Z,94.00
2018-10-21T16:51:00.712Z,94.40
2018-10-21T16:53:33.322Z,94.40
2018-10-21T16:56:05.740Z,94.90
2018-10-21T16:58:38.146Z,95.10
2018-10-21T17:01:10.643Z,95.30
2018-10-21T17:03:43.145Z,95.00
2018-10-21T17:06:15.410Z,95.20
2018-10-21T17:08:47.998Z,95.20
2018-10-21T17:11:20.386Z,95.40
2018-10-21T17:13:52.726Z,95.30
2018-10-21T17:16:25.150Z,95.30
2018-10-21T17:18:57.590Z,95.10
2018-10-21T17:21:29.969Z,94.90
2018-10-21T17:24:02.387Z,95.30
2018-10-21T17:26:34.789Z,95.40
2018-10-21T17:29:07.192Z,95.30
2018-10-21T17:31:39.593Z,95.20
2018-10-21T17:34:12.015Z,95.20
2018-10-21T17:36:44.418Z,95.20
2018-10-21T17:39:16.810Z,95.40
2018-10-21T17:41:49.218Z,95.30
2018-10-21T17:44:21.603Z,95.60
2018-10-21T17:46:54.004Z,95.70
2018-10-21T17:49:26.414Z,96.00
2018-10-21T17:51:58.891Z,96.00
2018-10-21T17:54:31.230Z,96.00
2018-10-21T17:57:03.655Z,96.20
2018-10-21T17:59:36.075Z,96.30
2018-10-21T18:02:08.503Z,96.40
2018-10-21T18:04:40.898Z,96.50
2018-10-21T18:07:13.347Z,96.70
2018-10-21T18:09:45.746Z,96.90
2018-10-21T18:12:18.202Z,97.20
2018-10-21T18:14:50.605Z,97.40
2018-10-21T18:17:23.085Z,97.50
2018-10-21T18:19:55.677Z,97.80
2018-10-21T18:22:28.271Z,98.10
2018-10-21T18:25:00.850Z,98.50
2018-10-21T18:27:33.531Z,98.80
2018-10-21T18:30:07.395Z,99.00
2018-10-21T18:32:40.018Z,99.30
2018-10-21T18:35:12.809Z,99.40
2018-10-21T18:37:45.356Z,99.70
2018-10-21T18:40:17.846Z,99.90
2018-10-21T18:42:50.255Z,99.90
2018-10-21T18:45:22.653Z,99.90
2018-10-21T18:47:55.059Z,99.90
2018-10-21T18:50:27.457Z,99.90
2018-10-21T18:52:59.862Z,99.90
2018-10-21T18:55:32.272Z,99.90
2018-10-21T18:58:04.897Z,99.90
2018-10-21T19:00:37.289Z,99.90
2018-10-21T19:03:09.712Z,99.90
2018-10-21T19:05:42.119Z,99.90
2018-10-21T19:08:14.802Z,99.90
2018-10-21T19:10:47.211Z,99.90
2018-10-21T19:13:19.692Z,99.90
2018-10-21T19:15:52.034Z,99.90
2018-10-21T19:18:24.438Z,99.90
2018-10-21T19:20:56.857Z,99.90
2018-10-21T19:23:29.259Z,99.90
2018-10-21T19:26:01.706Z,99.90
2018-10-21T19:28:34.150Z,99.90
2018-10-21T19:31:06.645Z,99.90
2018-10-21T19:33:41.631Z,99.90
